Time;durP1;ratioP1;P1;durP2;ratioP2;P2;SDS_P1;SDS_P2;PMS_P1;PMS_P2;Temp;Humidity;BMP_temperature;BMP_pressure;BME280_temperature;BME280_humidity;BME280_pressure;Samples;Min_cycle;Max_cycle;Signal;HPM_P1;HPM_P2
2022/02/22 00:00:04;;;;;;;42.38;5.75;;;;;;;4.31;88.72;101886.81;5032138;28;20029;-74
2022/02/22 00:02:30;;;;;;;45.38;6.32;;;;;;;4.25;89.42;101880.03;5031527;28;20033;-75
2022/02/22 00:04:55;;;;;;;49.20;7.60;;;;;;;4.24;89.90;101887.09;5031935;28;20033;-75
2022/02/22 00:07:20;;;;;;;50.28;5.95;;;;;;;4.28;89.55;101898.31;5032012;28;20032;-74
2022/02/22 00:09:46;;;;;;;48.05;5.57;;;;;;;4.25;89.77;101909.00;5031799;28;20551;-74
2022/02/22 00:12:11;;;;;;;37.75;5.55;;;;;;;4.28;89.56;101905.38;5031829;28;20462;-74
2022/02/22 00:14:37;;;;;;;46.25;5.18;;;;;;;4.28;89.08;101902.75;5031257;28;20152;-74
2022/02/22 00:17:02;;;;;;;36.58;5.85;;;;;;;4.27;88.97;101906.31;5031851;28;20030;-75
2022/02/22 00:19:28;;;;;;;35.10;4.50;;;;;;;4.22;89.30;101904.75;5031627;28;20422;-75
2022/02/22 00:21:55;;;;;;;38.03;5.20;;;;;;;4.23;89.86;101903.81;5030903;28;20424;-74
2022/02/22 00:24:21;;;;;;;50.97;5.40;;;;;;;4.20;89.99;101911.88;5031688;28;20030;-75
2022/02/22 00:26:47;;;;;;;43.45;5.40;;;;;;;4.14;90.19;101914.78;5031145;28;20029;-75
2022/02/22 00:29:13;;;;;;;32.47;4.63;;;;;;;4.11;90.75;101912.31;5031761;28;20037;-75
2022/02/22 00:31:38;;;;;;;37.28;5.40;;;;;;;4.11;90.79;101904.41;5030796;28;20033;-75
2022/02/22 00:34:04;;;;;;;39.53;5.38;;;;;;;4.11;90.95;101903.56;5031569;28;20056;-75
2022/02/22 00:36:30;;;;;;;50.63;6.68;;;;;;;4.13;90.89;101923.59;5031372;28;20048;-75
2022/02/22 00:38:56;;;;;;;33.78;5.13;;;;;;;4.15;90.84;101923.53;5030994;28;20033;-75
2022/02/22 00:41:21;;;;;;;41.42;5.32;;;;;;;4.13;90.72;101928.03;5031446;28;20033;-74
2022/02/22 00:43:47;;;;;;;43.28;6.38;;;;;;;4.10;90.93;101941.34;5030825;28;20036;-74
2022/02/22 00:46:12;;;;;;;40.35;5.03;;;;;;;4.13;90.76;101934.16;5031386;28;20041;-74
2022/02/22 00:48:38;;;;;;;36.30;6.55;;;;;;;4.09;90.65;101929.97;5030752;28;20482;-74
2022/02/22 00:51:03;;;;;;;33.47;5.50;;;;;;;4.08;90.57;101945.84;5013559;28;20041;-74
2022/02/22 00:53:28;;;;;;;42.95;5.38;;;;;;;4.10;90.53;101949.25;5031373;28;20046;-74
2022/02/22 00:55:54;;;;;;;37.60;4.95;;;;;;;4.13;89.87;101938.56;5031030;28;20069;-74
2022/02/22 00:58:19;;;;;;;36.63;5.72;;;;;;;4.08;90.19;101936.16;5031318;28;20469;-74
2022/02/22 01:00:45;;;;;;;34.00;4.40;;;;;;;4.08;89.97;101928.25;5030597;28;20470;-74
2022/02/22 01:03:10;;;;;;;35.45;7.20;;;;;;;4.08;90.12;101936.16;5031222;28;20049;-75
2022/02/22 01:05:36;;;;;;;51.60;4.60;;;;;;;4.10;89.84;101944.81;5030896;28;20500;-75
2022/02/22 01:08:02;;;;;;;41.20;5.07;;;;;;;4.13;89.75;101933.31;5030737;28;20091;-75
2022/02/22 01:10:28;;;;;;;40.13;5.07;;;;;;;4.05;89.34;101931.88;5013675;28;20121;-75
2022/02/22 01:12:54;;;;;;;37.08;4.97;;;;;;;4.00;89.76;101935.63;5030391;28;20041;-75
2022/02/22 01:15:19;;;;;;;46.97;4.68;;;;;;;4.02;89.81;101939.91;5031025;28;20037;-75
2022/02/22 01:17:45;;;;;;;38.35;5.68;;;;;;;4.03;89.75;101953.91;5030272;28;20029;-75
2022/02/22 01:20:10;;;;;;;29.05;5.07;;;;;;;4.05;89.62;101960.84;5030908;28;20033;-75
2022/02/22 01:22:37;;;;;;;42.58;4.32;;;;;;;4.09;89.38;101961.56;5031265;28;20036;-74
2022/02/22 01:25:05;;;;;;;37.75;5.28;;;;;;;4.09;89.14;101960.69;5030517;28;20033;-74
2022/02/22 01:27:30;;;;;;;30.30;5.55;;;;;;;4.08;89.12;101957.22;5030813;28;20473;-74
2022/02/22 01:29:56;;;;;;;40.88;5.88;;;;;;;4.15;88.93;101950.75;5012787;28;20048;-75
2022/02/22 01:32:21;;;;;;;42.03;5.57;;;;;;;4.11;88.86;101953.59;5030876;28;20065;-75
2022/02/22 01:34:46;;;;;;;35.00;4.68;;;;;;;4.04;89.13;101947.75;5033271;28;20033;-75
2022/02/22 01:37:12;;;;;;;35.28;4.63;;;;;;;3.98;89.38;101955.94;5035003;28;20188;-75
2022/02/22 01:39:37;;;;;;;37.58;6.05;;;;;;;3.98;89.50;101951.50;5034680;28;20033;-75
2022/02/22 01:42:03;;;;;;;40.42;5.35;;;;;;;4.02;89.69;101954.88;5016584;28;20037;-75
2022/02/22 01:44:28;;;;;;;41.78;5.40;;;;;;;4.06;89.42;101966.94;5017202;28;20094;-75
2022/02/22 01:46:59;;;;;;;44.30;4.60;;;;;;;4.05;89.24;101965.25;5034178;28;20474;-75
2022/02/22 01:49:25;;;;;;;35.90;4.30;;;;;;;4.05;89.54;101965.25;5034856;28;20036;-75
2022/02/22 01:51:51;;;;;;;29.02;4.78;;;;;;;4.11;89.95;101964.97;5033858;28;20614;-75
2022/02/22 01:54:19;;;;;;;34.05;5.18;;;;;;;4.11;89.62;101967.63;5034784;28;20029;-74
2022/02/22 01:56:44;;;;;;;36.75;4.38;;;;;;;4.11;89.58;101972.03;5034048;28;20075;-75
2022/02/22 01:59:11;;;;;;;27.15;4.03;;;;;;;4.10;89.87;101970.31;5034431;28;20033;-75
2022/02/22 02:01:36;;;;;;;38.38;5.53;;;;;;;4.15;89.88;101976.22;5034537;28;20036;-74
2022/02/22 02:04:05;;;;;;;34.67;4.70;;;;;;;4.16;89.61;101975.31;5016108;28;20133;-74
2022/02/22 02:06:32;;;;;;;28.52;4.90;;;;;;;4.18;89.39;101969.06;5034571;28;20045;-75
2022/02/22 02:08:58;;;;;;;37.05;5.15;;;;;;;4.13;89.53;101973.66;5033757;28;20149;-75
2022/02/22 02:11:23;;;;;;;35.72;5.38;;;;;;;4.13;89.83;101964.91;5016627;28;20030;-73
2022/02/22 02:13:49;;;;;;;35.65;4.35;;;;;;;4.17;89.78;101966.50;5033295;28;20029;-74
2022/02/22 02:16:14;;;;;;;30.92;4.57;;;;;;;4.18;89.82;101966.41;5034067;28;20113;-74
2022/02/22 02:18:39;;;;;;;39.97;5.05;;;;;;;4.18;89.85;101955.88;5034009;28;20033;-74
2022/02/22 02:21:06;;;;;;;30.98;4.05;;;;;;;4.13;89.56;101965.75;5033530;28;20099;-74
2022/02/22 02:23:31;;;;;;;34.80;4.97;;;;;;;4.09;89.79;101972.09;5033962;28;20034;-75
2022/02/22 02:25:57;;;;;;;35.28;4.90;;;;;;;4.08;89.84;101973.03;5033587;28;20036;-75
2022/02/22 02:28:22;;;;;;;35.78;4.53;;;;;;;4.03;90.19;101962.69;5033965;28;20127;-75
2022/02/22 02:30:49;;;;;;;35.88;4.80;;;;;;;4.08;90.37;101959.00;5033477;28;20032;-74
2022/02/22 02:33:14;;;;;;;34.35;4.00;;;;;;;4.08;90.67;101961.66;5033666;28;20048;-74
2022/02/22 02:35:40;;;;;;;43.63;5.65;;;;;;;4.05;90.66;101960.00;5034152;28;20037;-74
2022/02/22 02:38:05;;;;;;;26.77;3.58;;;;;;;4.01;90.46;101958.41;5033261;28;20041;-74
2022/02/22 02:40:30;;;;;;;36.97;4.05;;;;;;;4.06;90.74;101967.81;5033939;28;20144;-74
2022/02/22 02:42:56;;;;;;;29.85;3.90;;;;;;;4.08;90.60;101965.13;5015357;28;20076;-74
2022/02/22 02:45:22;;;;;;;33.83;5.15;;;;;;;4.09;90.60;101958.06;5015549;28;20053;-75
2022/02/22 02:47:47;;;;;;;35.90;4.53;;;;;;;4.10;90.63;101944.81;5015958;28;20033;-74
2022/02/22 02:50:13;;;;;;;35.47;4.85;;;;;;;4.13;90.23;101959.63;5033186;28;20087;-74
2022/02/22 02:52:38;;;;;;;31.98;4.00;;;;;;;4.14;90.25;101956.94;5033461;28;20068;-74
2022/02/22 02:55:04;;;;;;;32.78;4.05;;;;;;;4.10;90.26;101963.25;5032903;28;20441;-74
2022/02/22 02:57:30;;;;;;;37.90;4.45;;;;;;;4.08;90.46;101959.00;5033589;28;20034;-73
2022/02/22 02:59:56;;;;;;;34.72;5.00;;;;;;;4.09;90.43;101960.69;5014861;28;20043;-75
2022/02/22 03:02:21;;;;;;;30.38;4.75;;;;;;;4.07;90.67;101966.03;5033297;28;20033;-75
2022/02/22 03:04:47;;;;;;;30.65;4.53;;;;;;;4.10;90.95;101958.00;5033051;28;20120;-73
2022/02/22 03:07:12;;;;;;;29.13;4.20;;;;;;;4.10;91.03;101959.78;5032647;28;20044;-74
2022/02/22 03:09:38;;;;;;;41.50;4.45;;;;;;;4.10;91.15;101975.59;5033373;28;20438;-74
2022/02/22 03:12:03;;;;;;;38.17;3.92;;;;;;;4.06;91.57;101964.31;5032413;28;20069;-74
2022/02/22 03:14:29;;;;;;;37.25;4.70;;;;;;;4.02;91.63;101960.97;5033267;28;20501;-73
2022/02/22 03:16:54;;;;;;;36.42;5.03;;;;;;;4.03;92.36;101961.81;5032670;28;20112;-74
2022/02/22 03:19:20;;;;;;;33.55;4.55;;;;;;;4.03;92.79;101961.81;5032684;28;20386;-74
2022/02/22 03:21:45;;;;;;;27.67;3.55;;;;;;;4.00;92.79;101949.66;5032899;28;20040;-75
2022/02/22 03:24:10;;;;;;;28.45;3.70;;;;;;;3.99;92.81;101952.38;5014371;28;20429;-74
2022/02/22 03:26:36;;;;;;;28.98;3.78;;;;;;;3.97;93.28;101962.09;5032635;28;20061;-75
2022/02/22 03:29:02;;;;;;;31.38;4.07;;;;;;;3.91;93.47;101955.31;5032068;28;20117;-75
2022/02/22 03:31:28;;;;;;;38.92;4.55;;;;;;;3.87;93.30;101952.00;5032580;28;20033;-74
2022/02/22 03:33:54;;;;;;;27.73;3.40;;;;;;;3.81;93.21;101947.00;5032477;28;20033;-74
2022/02/22 03:36:20;;;;;;;32.85;4.60;;;;;;;3.79;93.80;101958.50;5032291;28;20044;-75
2022/02/22 03:38:46;;;;;;;36.22;4.65;;;;;;;3.79;94.02;101955.88;5015003;28;20041;-74
2022/02/22 03:41:11;;;;;;;28.67;3.90;;;;;;;3.77;94.27;101948.06;5032027;28;20038;-74
2022/02/22 03:43:36;;;;;;;36.97;4.95;;;;;;;3.77;94.52;101952.47;5032653;28;20112;-75
2022/02/22 03:46:02;;;;;;;45.38;4.72;;;;;;;3.75;94.61;101963.06;5031863;28;20041;-75
2022/02/22 03:48:27;;;;;;;31.77;3.95;;;;;;;3.69;94.64;101956.28;5014576;28;20489;-74
2022/02/22 03:50:53;;;;;;;38.17;3.53;;;;;;;3.64;94.51;101960.03;5032531;28;20308;-74
2022/02/22 03:53:18;;;;;;;30.35;4.35;;;;;;;3.58;94.81;101960.31;5031948;28;20080;-74
2022/02/22 03:55:45;;;;;;;36.40;4.30;;;;;;;3.55;95.07;101963.91;5031765;28;20040;-73
2022/02/22 03:58:10;;;;;;;32.92;4.35;;;;;;;3.55;95.39;101960.44;5031581;28;20037;-73
2022/02/22 04:00:35;;;;;;;30.42;4.13;;;;;;;3.47;95.30;101964.25;5032126;28;20060;-73
2022/02/22 04:03:03;;;;;;;29.15;3.70;;;;;;;3.42;95.44;101971.50;5031603;28;20463;-74
2022/02/22 04:05:29;;;;;;;38.92;6.03;;;;;;;3.41;95.74;101971.56;5032178;28;20037;-74
2022/02/22 04:07:55;;;;;;;24.95;3.60;;;;;;;3.38;95.83;101969.06;5032347;28;20056;-74
2022/02/22 04:10:21;;;;;;;31.20;5.18;;;;;;;3.39;96.18;101966.38;5031537;28;20068;-74
2022/02/22 04:12:47;;;;;;;32.50;3.42;;;;;;;3.43;96.49;101959.19;5031952;28;20084;-74
2022/02/22 04:15:12;;;;;;;27.52;3.58;;;;;;;3.44;96.67;101958.28;5013840;28;20091;-74
2022/02/22 04:17:38;;;;;;;31.42;4.20;;;;;;;3.44;96.58;101959.13;5031948;28;20037;-74
2022/02/22 04:20:05;;;;;;;19.15;3.15;;;;;;;3.48;96.71;101960.72;5031199;28;20466;-74
2022/02/22 04:22:30;;;;;;;31.38;4.05;;;;;;;3.45;96.48;101966.09;5032073;28;20037;-73
2022/02/22 04:24:56;;;;;;;32.60;4.45;;;;;;;3.39;96.31;101962.88;5031952;28;20026;-75
2022/02/22 04:27:21;;;;;;;22.73;3.95;;;;;;;3.38;96.31;101966.44;5031185;28;20146;-74
2022/02/22 04:29:46;;;;;;;32.00;4.45;;;;;;;3.30;96.53;101964.97;5031889;28;20026;-75
2022/02/22 04:32:12;;;;;;;29.17;4.60;;;;;;;3.27;96.67;101962.47;5013312;28;20044;-74
2022/02/22 04:34:37;;;;;;;23.90;2.92;;;;;;;3.35;97.58;101951.63;4997494;28;20044;-75
2022/02/22 04:37:03;;;;;;;23.67;3.22;;;;;;;3.35;97.82;101963.00;5031784;28;20540;-75
2022/02/22 04:39:29;;;;;;;26.98;3.53;;;;;;;3.37;97.92;101964.72;5031617;28;20064;-75
2022/02/22 04:41:55;;;;;;;26.42;3.10;;;;;;;3.41;98.41;101961.88;5013839;28;20172;-75
2022/02/22 04:44:20;;;;;;;20.05;2.88;;;;;;;3.49;98.94;101956.28;5030976;28;20478;-74
2022/02/22 04:46:46;;;;;;;23.67;3.45;;;;;;;3.52;99.56;101964.06;5031427;28;20079;-75
2022/02/22 04:49:12;;;;;;;16.58;3.00;;;;;;;3.50;99.60;101969.38;5030863;28;20026;-74
2022/02/22 04:51:39;;;;;;;33.22;3.45;;;;;;;3.55;99.95;101971.81;5017825;28;20416;-74
2022/02/22 04:54:05;;;;;;;34.75;3.83;;;;;;;3.55;100.00;101965.72;5051647;28;20040;-75
2022/02/22 04:56:31;;;;;;;21.98;3.47;;;;;;;3.64;100.00;101975.84;5051580;28;20033;-74
2022/02/22 04:58:56;;;;;;;24.73;4.15;;;;;;;3.82;100.00;101987.34;5051413;28;20160;-74
2022/02/22 05:01:22;;;;;;;30.13;3.92;;;;;;;4.00;100.00;101967.22;5049475;28;20033;-74
2022/02/22 05:03:48;;;;;;;36.30;5.05;;;;;;;4.08;100.00;101972.19;5051479;28;20032;-75
2022/02/22 05:06:14;;;;;;;31.75;5.65;;;;;;;4.18;100.00;101973.44;5051000;28;20385;-74
2022/02/22 05:08:39;;;;;;;26.60;4.50;;;;;;;4.28;100.00;101953.66;5054991;28;20127;-74
2022/02/22 05:11:05;;;;;;;24.95;3.45;;;;;;;4.40;100.00;101953.09;5055368;28;20111;-74
2022/02/22 05:13:31;;;;;;;24.25;4.30;;;;;;;4.48;100.00;101951.88;5054714;28;20474;-74
2022/02/22 05:15:57;;;;;;;32.35;4.03;;;;;;;4.50;100.00;101950.88;5055731;28;20116;-75
2022/02/22 05:18:22;;;;;;;27.27;4.63;;;;;;;4.49;100.00;101946.53;5053560;28;20087;-74
2022/02/22 05:20:56;;;;;;;33.63;4.72;;;;;;;4.49;100.00;101945.69;5055425;28;20056;-74
2022/02/22 05:23:22;;;;;;;29.17;4.13;;;;;;;4.44;100.00;101953.81;5054935;28;20064;-74
2022/02/22 05:25:47;;;;;;;32.97;4.55;;;;;;;4.40;100.00;101954.88;5055733;28;20378;-74
2022/02/22 05:28:13;;;;;;;25.60;3.70;;;;;;;4.31;100.00;101950.03;5055109;28;20108;-74
2022/02/22 05:30:40;;;;;;;23.73;4.05;;;;;;;4.27;100.00;101932.66;5055413;28;20108;-74
2022/02/22 05:33:05;;;;;;;39.80;4.80;;;;;;;4.25;100.00;101924.81;5055000;28;20112;-75
2022/02/22 05:35:31;;;;;;;40.08;5.35;;;;;;;4.18;100.00;101929.53;5054770;28;20188;-75
2022/02/22 05:37:56;;;;;;;27.95;4.28;;;;;;;4.16;100.00;101933.16;5055156;28;20033;-75
2022/02/22 05:40:22;;;;;;;39.47;5.13;;;;;;;4.14;100.00;101935.88;5054438;28;20100;-75
2022/02/22 05:42:47;;;;;;;23.83;3.58;;;;;;;4.11;100.00;101941.28;5053446;28;20400;-75
2022/02/22 05:45:12;;;;;;;25.35;3.97;;;;;;;4.13;100.00;101934.16;5053125;28;20401;-75
2022/02/22 05:47:38;;;;;;;32.42;5.15;;;;;;;4.08;100.00;101925.63;5054559;28;20028;-75
2022/02/22 05:50:04;;;;;;;34.78;4.70;;;;;;;4.00;100.00;101925.97;5054628;28;20029;-75
2022/02/22 05:52:30;;;;;;;31.70;4.15;;;;;;;3.89;100.00;101923.78;5043096;28;20391;-74
2022/02/22 05:54:55;;;;;;;34.72;6.32;;;;;;;3.78;100.00;101922.59;5034613;28;20033;-75
2022/02/22 05:57:24;;;;;;;40.95;5.30;;;;;;;3.77;100.00;101918.25;5034177;28;20486;-75
2022/02/22 05:59:49;;;;;;;45.35;5.63;;;;;;;3.69;100.00;101910.69;5034487;28;20420;-75
2022/02/22 06:02:15;;;;;;;36.65;4.97;;;;;;;3.63;100.00;101909.19;5016448;28;20037;-76
2022/02/22 06:04:40;;;;;;;33.88;5.45;;;;;;;3.59;100.00;101907.59;5034447;28;20041;-74
2022/02/22 06:07:05;;;;;;;53.75;7.60;;;;;;;3.53;100.00;101910.50;5034430;28;20040;-75
2022/02/22 06:09:31;;;;;;;54.55;6.18;;;;;;;3.48;100.00;101918.59;5033788;28;20041;-75
2022/02/22 06:11:56;;;;;;;40.58;6.82;;;;;;;3.44;100.00;101911.75;5034651;28;20103;-76
2022/02/22 06:14:21;;;;;;;42.45;6.20;;;;;;;3.43;100.00;101909.19;5033652;28;20492;-76
2022/02/22 06:16:48;;;;;;;35.58;4.93;;;;;;;3.43;100.00;101899.50;5016579;28;20470;-75
2022/02/22 06:19:14;;;;;;;42.97;5.20;;;;;;;3.46;100.00;101894.16;5019653;28;20048;-74
2022/02/22 06:21:39;;;;;;;48.33;5.50;;;;;;;3.50;100.00;101894.84;5053743;28;20041;-79
2022/02/22 06:24:05;;;;;;;56.42;7.07;;;;;;;3.57;100.00;101890.16;5054062;28;20067;-75
2022/02/22 06:26:31;;;;;;;43.72;5.55;;;;;;;3.61;100.00;101883.84;5053505;28;20173;-75
2022/02/22 06:28:56;;;;;;;43.20;6.95;;;;;;;3.65;100.00;101885.44;5054105;28;20025;-75
2022/02/22 06:31:22;;;;;;;36.65;5.18;;;;;;;3.70;100.00;101884.31;5053263;28;20086;-77
2022/02/22 06:33:47;;;;;;;48.58;6.30;;;;;;;3.77;100.00;101881.38;5054066;28;20033;-76
2022/02/22 06:36:12;;;;;;;41.60;5.35;;;;;;;3.91;100.00;101883.38;5054112;28;20477;-76
2022/02/22 06:38:38;;;;;;;38.50;5.55;;;;;;;4.01;100.00;101888.16;5053373;28;20040;-76
2022/02/22 06:41:03;;;;;;;39.08;5.80;;;;;;;4.12;100.00;101889.44;5053980;28;20476;-76
2022/02/22 06:43:29;;;;;;;46.38;6.78;;;;;;;4.24;100.00;101886.25;5053175;28;20029;-75
2022/02/22 06:45:54;;;;;;;40.03;5.45;;;;;;;4.29;100.00;101888.66;5053715;28;20041;-76
2022/02/22 06:48:20;;;;;;;39.67;6.55;;;;;;;4.33;100.00;101888.44;5035576;28;20123;-78
2022/02/22 06:50:45;;;;;;;40.88;5.90;;;;;;;4.31;100.00;101881.53;5053578;28;20040;-75
2022/02/22 06:53:11;;;;;;;53.08;6.57;;;;;;;4.34;100.00;101876.09;5053897;28;20438;-77
2022/02/22 06:55:39;;;;;;;44.58;7.03;;;;;;;4.40;100.00;101875.81;5035073;28;20047;-77
2022/02/22 06:58:10;;;;;;;36.42;6.22;;;;;;;4.47;100.00;101879.03;5053409;28;20060;-76
2022/02/22 07:00:37;;;;;;;47.47;6.20;;;;;;;4.55;100.00;101872.47;5052735;28;20033;-77
2022/02/22 07:03:04;;;;;;;37.30;5.20;;;;;;;4.59;100.00;101879.25;5053313;28;20033;-75
2022/02/22 07:05:30;;;;;;;36.45;5.35;;;;;;;4.62;99.61;101866.88;5052936;28;20086;-76
2022/02/22 07:07:57;;;;;;;42.83;6.13;;;;;;;4.67;99.66;101876.28;5045595;28;20387;-77
2022/02/22 07:10:24;;;;;;;48.88;7.57;;;;;;;4.62;99.05;101865.09;5033265;28;20033;-78
2022/02/22 07:12:49;;;;;;;31.58;5.80;;;;;;;4.61;98.92;101860.72;5033288;28;20467;-79
2022/02/22 07:15:15;;;;;;;55.80;6.85;;;;;;;4.55;98.86;101851.38;5033381;28;20040;-78
2022/02/22 07:17:48;;;;;;;42.53;5.82;;;;;;;4.56;99.18;101853.06;5032906;28;20111;-77
2022/02/22 07:20:14;;;;;;;33.22;5.35;;;;;;;4.53;99.20;101850.56;5016156;28;20029;-77
2022/02/22 07:22:40;;;;;;;38.60;5.88;;;;;;;4.51;99.26;101841.03;5032999;28;20474;-77
2022/02/22 07:25:07;;;;;;;34.72;5.90;;;;;;;4.53;99.44;101836.53;5033572;28;20470;-76
2022/02/22 07:27:33;;;;;;;33.22;5.35;;;;;;;4.51;99.33;101838.38;5033243;28;20068;-76
2022/02/22 07:29:58;;;;;;;31.08;4.28;;;;;;;4.53;99.41;101841.81;5033305;28;20034;-78
2022/02/22 07:32:24;;;;;;;41.88;5.82;;;;;;;4.53;99.48;101837.38;5014491;28;20033;-77
2022/02/22 07:34:49;;;;;;;35.35;5.35;;;;;;;4.56;99.35;101834.59;5032885;28;20418;-77
2022/02/22 07:37:14;;;;;;;29.77;5.30;;;;;;;4.59;99.23;101833.59;5033288;28;20041;-78
2022/02/22 07:39:40;;;;;;;42.20;5.30;;;;;;;4.67;99.35;101831.47;5032887;28;20522;-76
2022/02/22 07:42:05;;;;;;;30.45;4.53;;;;;;;4.70;99.27;101827.78;5033213;28;20087;-75
2022/02/22 07:44:31;;;;;;;33.72;5.68;;;;;;;4.74;98.76;101830.19;5014963;28;20474;-77
2022/02/22 07:46:56;;;;;;;31.13;4.85;;;;;;;4.79;98.50;101822.06;5033132;28;20118;-77
2022/02/22 07:49:21;;;;;;;40.13;6.13;;;;;;;4.79;97.74;101829.13;5033057;28;20045;-80
2022/02/22 07:51:47;;;;;;;36.70;4.97;;;;;;;4.83;97.75;101836.78;5034496;28;20064;-78
2022/02/22 07:54:12;;;;;;;35.03;5.03;;;;;;;4.86;97.71;101836.63;5033108;28;20040;-77
2022/02/22 07:56:37;;;;;;;32.75;5.72;;;;;;;4.88;97.43;101821.59;5032380;28;20482;-78
2022/02/22 07:59:03;;;;;;;31.63;5.70;;;;;;;4.89;97.47;101819.81;5032857;28;20040;-77
2022/02/22 08:01:28;;;;;;;42.22;5.93;;;;;;;4.97;97.48;101819.41;5032650;28;20030;-78
2022/02/22 08:03:54;;;;;;;38.65;5.30;;;;;;;5.08;97.21;101811.81;5033081;28;20143;-77
2022/02/22 08:06:19;;;;;;;36.33;4.55;;;;;;;5.17;96.65;101815.75;5032731;28;20116;-77
2022/02/22 08:08:45;;;;;;;32.30;6.45;;;;;;;5.23;96.42;101808.38;5032385;28;20033;-77
2022/02/22 08:11:10;;;;;;;31.73;4.90;;;;;;;5.31;96.59;101800.03;5032615;28;20493;-76
2022/02/22 08:13:35;;;;;;;35.15;5.10;;;;;;;5.43;95.74;101794.13;5032128;28;20072;-76
2022/02/22 08:16:01;;;;;;;30.85;5.30;;;;;;;5.52;95.15;101795.38;5014556;28;20504;-76
2022/02/22 08:18:27;;;;;;;43.83;6.20;;;;;;;5.54;94.89;101787.38;5032509;28;20041;-78
2022/02/22 08:20:52;;;;;;;35.00;5.25;;;;;;;5.54;94.99;101784.75;5032113;28;20103;-74
2022/02/22 08:23:18;;;;;;;40.97;5.30;;;;;;;5.59;94.79;101790.66;5032454;28;20474;-76
2022/02/22 08:25:43;;;;;;;27.92;6.35;;;;;;;5.65;94.71;101775.31;5014335;28;20117;-76
2022/02/22 08:28:10;;;;;;;38.70;5.80;;;;;;;5.71;94.52;101770.66;5032432;28;20474;-76
2022/02/22 08:30:38;;;;;;;38.67;6.97;;;;;;;5.77;94.28;101762.38;5031802;28;20033;-75
2022/02/22 08:33:05;;;;;;;36.17;5.47;;;;;;;5.82;93.68;101752.41;5032068;28;20033;-76
2022/02/22 08:35:31;;;;;;;37.85;6.30;;;;;;;5.91;93.19;101743.97;5032531;28;20050;-75
2022/02/22 08:37:56;;;;;;;25.27;4.93;;;;;;;5.99;92.56;101747.06;5031818;28;20087;-75
2022/02/22 08:40:21;;;;;;;34.15;5.10;;;;;;;6.07;92.68;101751.06;5032053;28;20049;-76
2022/02/22 08:42:47;;;;;;;41.88;6.60;;;;;;;6.23;91.86;101737.81;5031319;28;20044;-75
2022/02/22 08:45:12;;;;;;;33.45;5.82;;;;;;;6.48;91.88;101737.25;5031999;28;20520;-76
2022/02/22 08:47:38;;;;;;;25.95;4.72;;;;;;;6.58;90.47;101719.88;5031247;28;20030;-77
2022/02/22 08:50:03;;;;;;;28.63;5.80;;;;;;;6.66;89.56;101711.50;5014462;28;20059;-77
2022/02/22 08:52:31;;;;;;;30.10;4.57;;;;;;;6.68;89.41;101721.00;5031766;28;20073;-77
2022/02/22 08:54:57;;;;;;;36.40;5.70;;;;;;;6.51;89.77;101714.09;5031619;28;20491;-76
2022/02/22 08:57:22;;;;;;;22.92;4.60;;;;;;;6.49;89.63;101712.50;4998086;28;20128;-79
2022/02/22 08:59:47;;;;;;;33.63;5.90;;;;;;;6.59;88.42;101705.72;5031518;28;20112;-80
2022/02/22 09:02:13;;;;;;;31.02;6.78;;;;;;;6.63;87.74;101698.47;5031918;28;20037;-76
2022/02/22 09:04:39;;;;;;;37.13;5.63;;;;;;;6.66;87.14;101703.56;5031517;28;20033;-80
2022/02/22 09:07:04;;;;;;;28.63;5.57;;;;;;;6.60;88.06;101701.25;5031877;28;20045;-77
2022/02/22 09:09:29;;;;;;;29.17;5.80;;;;;;;6.64;87.87;101687.78;5031893;28;20034;-77
2022/02/22 09:11:56;;;;;;;38.85;5.68;;;;;;;6.67;86.71;101708.75;5031230;28;20033;-78
2022/02/22 09:14:22;;;;;;;31.77;5.18;;;;;;;6.63;86.26;101701.09;5031768;28;20357;-76
2022/02/22 09:16:47;;;;;;;26.42;5.05;;;;;;;6.57;86.34;101683.81;5031272;28;20146;-78
2022/02/22 09:19:12;;;;;;;28.58;6.47;;;;;;;6.75;86.14;101679.19;5031952;28;20077;-77
2022/02/22 09:21:38;;;;;;;29.25;6.05;;;;;;;6.89;86.29;101680.97;5031780;28;20053;-76
2022/02/22 09:24:04;;;;;;;28.27;4.72;;;;;;;7.05;84.56;101692.31;5013588;28;20026;-76
2022/02/22 09:26:29;;;;;;;29.13;5.95;;;;;;;7.27;83.89;101698.06;5031820;28;20038;-76
2022/02/22 09:28:56;;;;;;;29.55;6.45;;;;;;;7.41;81.94;101716.59;5031271;28;20113;-77
2022/02/22 09:31:22;;;;;;;35.90;6.55;;;;;;;7.43;80.30;101719.13;5031413;28;20378;-78
2022/02/22 09:33:47;;;;;;;31.40;5.75;;;;;;;7.02;81.12;101713.69;5031165;28;20029;-77
2022/02/22 09:36:13;;;;;;;25.45;5.53;;;;;;;6.89;82.32;101710.94;5014346;28;20071;-78
2022/02/22 09:38:39;;;;;;;30.13;5.65;;;;;;;6.73;83.63;101710.16;5014226;28;20509;-80
2022/02/22 09:41:04;;;;;;;32.20;5.70;;;;;;;6.65;84.61;101688.63;5031487;28;20065;-78
2022/02/22 09:43:32;;;;;;;28.48;6.25;;;;;;;6.64;85.37;101674.56;5031913;28;20083;-77
2022/02/22 09:45:57;;;;;;;36.70;5.93;;;;;;;6.75;84.35;101695.06;5031310;28;20038;-77
2022/02/22 09:48:23;;;;;;;38.53;6.50;;;;;;;6.73;83.86;101699.56;5032088;28;20389;-75
2022/02/22 09:50:49;;;;;;;32.85;5.65;;;;;;;6.71;83.83;101699.66;5031282;28;20039;-77
2022/02/22 09:53:15;;;;;;;29.10;5.55;;;;;;;6.63;84.10;101694.00;5031541;28;20140;-76
2022/02/22 09:55:40;;;;;;;35.42;5.72;;;;;;;6.51;85.41;101689.47;5034470;28;20033;-77
2022/02/22 09:58:06;;;;;;;41.80;6.53;;;;;;;6.35;86.75;101674.50;5035258;28;20036;-77
2022/02/22 10:00:32;;;;;;;33.88;5.55;;;;;;;6.32;87.64;101668.56;5035279;28;20470;-77
2022/02/22 10:02:58;;;;;;;34.10;6.03;;;;;;;6.25;89.68;101675.16;5034341;28;20119;-76
2022/02/22 10:05:26;;;;;;;41.25;6.57;;;;;;;6.21;90.91;101666.56;5034986;28;20109;-76
2022/02/22 10:07:58;;;;;;;44.53;7.03;;;;;;;6.09;92.54;101668.13;5034673;28;20100;-77
2022/02/22 10:10:39;;;;;;;38.45;6.22;;;;;;;5.95;94.67;101668.88;5034943;28;20034;-78
2022/02/22 10:13:06;;;;;;;49.47;7.30;;;;;;;5.82;95.96;101654.66;5034473;28;20034;-77
2022/02/22 10:15:43;;;;;;;52.10;7.30;;;;;;;5.81;96.74;101637.16;5034798;28;20041;-76
2022/02/22 10:18:09;;;;;;;47.22;7.90;;;;;;;5.78;98.04;101627.59;5034281;28;20041;-77
2022/02/22 10:20:35;;;;;;;34.95;7.18;;;;;;;5.75;98.63;101624.31;5034843;28;20055;-77
2022/02/22 10:23:02;;;;;;;45.20;6.25;;;;;;;5.72;99.62;101625.31;5034363;28;20030;-74
2022/02/22 10:25:28;;;;;;;28.73;6.05;;;;;;;5.70;100.00;101626.34;5034528;28;20040;-75
2022/02/22 10:27:58;;;;;;;34.25;7.68;;;;;;;5.67;100.00;101627.34;5034220;28;20068;-77
2022/02/22 10:30:39;;;;;;;36.38;7.15;;;;;;;5.68;100.00;101613.22;5034808;28;20037;-76
2022/02/22 10:33:19;;;;;;;29.33;6.22;;;;;;;5.72;100.00;101629.72;5034190;28;20071;-75
2022/02/22 10:35:48;;;;;;;41.85;8.10;;;;;;;5.77;100.00;101615.31;5034630;28;20116;-75
2022/02/22 10:38:18;;;;;;;25.48;6.07;;;;;;;5.83;100.00;101622.88;5034043;28;20032;-75
2022/02/22 10:40:51;;;;;;;30.98;7.30;;;;;;;5.94;100.00;101634.63;5034470;28;20477;-75
2022/02/22 10:43:31;;;;;;;36.60;8.23;;;;;;;6.00;100.00;101644.88;5034552;28;20040;-75
2022/02/22 10:45:59;;;;;;;31.48;6.97;;;;;;;6.04;100.00;101621.78;5033884;28;20082;-76
2022/02/22 10:48:37;;;;;;;43.10;8.02;;;;;;;6.07;100.00;101611.84;5034198;28;20030;-77
2022/02/22 10:51:13;;;;;;;36.95;7.57;;;;;;;6.13;100.00;101602.72;5033464;28;20354;-76
2022/02/22 10:53:48;;;;;;;33.67;8.80;;;;;;;6.21;100.00;101599.63;5049117;28;20051;-75
2022/02/22 10:56:18;;;;;;;27.38;7.32;;;;;;;6.25;100.00;101607.28;5053508;28;20037;-76
2022/02/22 10:58:44;;;;;;;43.60;8.70;;;;;;;6.29;100.00;101614.06;5054150;28;20068;-76
2022/02/22 11:01:19;;;;;;;38.80;8.07;;;;;;;6.38;100.00;101590.69;5053373;28;20190;-77
2022/02/22 11:03:45;;;;;;;34.80;8.48;;;;;;;6.45;100.00;101613.13;5054021;28;20053;-77
2022/02/22 11:06:12;;;;;;;43.28;7.57;;;;;;;6.51;100.00;101613.63;5052974;28;20120;-76
2022/02/22 11:08:43;;;;;;;37.00;7.75;;;;;;;6.55;100.00;101610.81;5053655;28;20422;-74
2022/02/22 11:11:16;;;;;;;29.58;7.38;;;;;;;6.65;100.00;101612.78;5053273;28;20049;-76
2022/02/22 11:13:42;;;;;;;42.10;8.23;;;;;;;6.68;100.00;101609.09;5053746;28;20033;-75
2022/02/22 11:16:17;;;;;;;31.15;7.90;;;;;;;6.78;100.00;101594.38;5053118;28;20035;-77